Flight Track Log - Related Links

Times and Time Zones

All times are in EDT time to prevent confusion due to time zone crossing. See the EGF4279 flight status page for this flight to view local times or setup timezone preferences in your user account.

Time Position Orientation Groundspeed Altitude Reporting Facility
EDT Latitude Longitude Course Direction KTS MPH feet Rate Location/Type
Sun 07:08:00 AM 41.9604 -72.9966 275° West  Level Estimated
Sun 07:09:00 AM 41.9672 -73.1010 275° West  Level Estimated
Sun 07:10:00 AM 41.9740 -73.2055 275° West  Level Estimated
Sun 07:11:00 AM 41.9807 -73.3100 275° West  Level Estimated
Sun 07:12:00 AM 41.9873 -73.4145 275° West  Level Estimated
Sun 07:13:00 AM 41.9938 -73.5191 275° West  Level Estimated
Sun 07:14:00 AM 42.0002 -73.6236 275° West  Level Estimated
Sun 07:15:00 AM 42.0065 -73.7282 275° West  Level Estimated
Sun 07:16:00 AM 42.0128 -73.8328 275° West  Level Estimated
Sun 07:17:00 AM 42.0189 -73.9374 275° West  Level Estimated
Sun 07:18:00 AM 42.0249 -74.0421 274° West  Level Estimated
Sun 07:19:00 AM 42.0308 -74.1468 274° West  Level Estimated
Sun 07:20:00 AM 42.0367 -74.2514 274° West  Level Estimated
Sun 07:21:00 AM 42.0424 -74.3561 274° West  Level Estimated
Sun 07:22:00 AM 42.0481 -74.4609 274° West  Level Estimated
Sun 07:23:00 AM 42.0536 -74.5656 274° West  Level Estimated
Sun 07:24:00 AM 42.0591 -74.6703 274° West  Level Estimated
Sun 07:25:00 AM 42.0644 -74.7751 274° West  Level Estimated
Sun 07:26:00 AM 42.0697 -74.8799 274° West  Level Estimated
Sun 07:27:00 AM 42.0749 -74.9847 274° West  Level Estimated
Sun 07:28:00 AM 42.0800 -75.0895 274° West  Level Estimated
Sun 07:29:00 AM 42.0849 -75.1944 274° West  Level Estimated
Sun 07:30:00 AM 42.0898 -75.2993 274° West  Level Estimated
Sun 07:31:00 AM 42.0946 -75.4041 274° West  Level Estimated
Sun 07:32:00 AM 42.0993 -75.5090 273° West  Level Estimated
Sun 07:33:00 AM 42.1039 -75.6139 273° West  Level Estimated
Sun 07:34:00 AM 42.1084 -75.7188 273° West  Level Estimated
Sun 07:35:00 AM 42.1128 -75.8238 273° West  Level Estimated
Sun 07:36:00 AM 42.1171 -75.9287 273° West  Level Estimated
Sun 07:37:00 AM 42.1214 -76.0337 273° West  Level Estimated
Sun 07:38:00 AM 42.1255 -76.1387 273° West  Level Estimated
Sun 07:39:00 AM 42.1295 -76.2437 273° West  Level Estimated
Sun 07:40:00 AM 42.1334 -76.3487 273° West  Level Estimated
Sun 07:41:00 AM 42.1373 -76.4537 273° West  Level Estimated
Sun 07:42:00 AM 42.1410 -76.5587 273° West  Level Estimated
Sun 07:43:00 AM 42.1446 -76.6638 273° West  Level Estimated
Sun 07:44:00 AM 42.1482 -76.7688 273° West  Level Estimated
Sun 07:45:00 AM 42.1516 -76.8739 273° West  Level Estimated
Sun 07:46:00 AM 42.1550 -76.9790 273° West  Level Estimated
Sun 07:47:00 AM 42.1583 -77.0841 272° West  Level Estimated
Sun 07:48:00 AM 42.1614 -77.1892 272° West  Level Estimated
Sun 07:49:00 AM 42.1645 -77.2943 272° West  Level Estimated
Sun 07:50:00 AM 42.1675 -77.3994 272° West  Level Estimated
Sun 07:51:00 AM 42.1703 -77.5045 272° West  Level Estimated
Sun 07:52:00 AM 42.1731 -77.6096 272° West  Level Estimated
Sun 07:53:00 AM 42.1758 -77.7148 272° West  Level Estimated
Sun 07:54:00 AM 42.1784 -77.8200 272° West  Level Estimated
Sun 07:55:00 AM 42.1809 -77.9251 272° West  Level Estimated
Sun 07:56:00 AM 42.1833 -78.0303 272° West  Level Estimated
Sun 07:57:00 AM 42.1856 -78.1355 272° West  Level Estimated
Sun 07:58:00 AM 42.1878 -78.2407 272° West  Level Estimated
Sun 07:59:00 AM 42.1899 -78.3459 272° West  Level Estimated
Sun 08:00:00 AM 42.1919 -78.4511 272° West  Level Estimated
Sun 08:01:00 AM 42.1938 -78.5563 271° West  Level Estimated
Sun 08:02:00 AM 42.1956 -78.6615 271° West  Level Estimated
Sun 08:03:00 AM 42.1973 -78.7667 271° West  Level Estimated
Sun 08:04:00 AM 42.1990 -78.8719 271° West  Level Estimated
Sun 08:05:00 AM 42.2005 -78.9772 271° West  Level Estimated
Sun 08:06:00 AM 42.2019 -79.0824 271° West  Level Estimated
Sun 08:07:00 AM 42.2033 -79.1877 271° West  Level Estimated
Sun 08:08:00 AM 42.2045 -79.2929 271° West  Level Estimated
Sun 08:09:00 AM 42.2057 -79.3981 271° West  Level Estimated
Sun 08:10:00 AM 42.2067 -79.5034 271° West  Level Estimated
Sun 08:11:00 AM 42.2076 -79.6087 271° West  Level Estimated
Sun 08:12:00 AM 42.2085 -79.7139 271° West  Level Estimated
Sun 08:13:00 AM 42.2093 -79.8192 271° West  Level Estimated
Sun 08:14:00 AM 42.2099 -79.9244 271° West  Level Estimated
Sun 08:15:00 AM 42.2105 -80.0297 270° West  Level Estimated
Sun 08:16:00 AM 42.2110 -80.1350 270° West  Level Estimated
Sun 08:17:00 AM 42.2113 -80.2402 270° West  Level Estimated
Sun 08:18:00 AM 42.2116 -80.3455 270° West  Level Estimated
Sun 08:19:00 AM 42.2118 -80.4508 270° West  Level Estimated
Sun 08:20:00 AM 42.2119 -80.5561 270° West  Level Estimated
Sun 08:21:00 AM 42.2119 -80.6613 270° West  Level Estimated
Sun 08:22:00 AM 42.2118 -80.7666 270° West  Level Estimated
Sun 08:23:00 AM 42.2116 -80.8719 270° West  Level Estimated
Sun 08:24:00 AM 42.2113 -80.9771 270° West  Level Estimated
Sun 08:25:00 AM 42.2109 -81.0824 270° West  Level Estimated
Sun 08:26:00 AM 42.2104 -81.1877 270° West  Level Estimated
Sun 08:27:00 AM 42.2098 -81.2930 270° West  Level Estimated
Sun 08:28:00 AM 42.2091 -81.3982 270° West  Level Estimated
Sun 08:29:00 AM 42.2083 -81.5035 269° West  Level Estimated
Sun 08:30:00 AM 42.2075 -81.6087 269° West  Level Estimated
Sun 08:31:00 AM 42.2065 -81.7140 269° West  Level Estimated
Sun 08:32:00 AM 42.2054 -81.8193 269° West  Level Estimated
Sun 08:33:00 AM 42.2043 -81.9245 269° West  Level Estimated
Sun 08:34:00 AM 42.2030 -82.0297 269° West  Level Estimated
Sun 08:35:00 AM 42.2016 -82.1350 269° West  Level Estimated
Sun 08:36:00 AM 42.2002 -82.2402 269° West  Level Estimated
Sun 08:37:00 AM 42.1986 -82.3455 269° West  Level Estimated
Sun 08:38:00 AM 42.1970 -82.4507 269° West  Level Estimated
Sun 08:39:00 AM 42.1953 -82.5559 269° West  Level Estimated
Sun 08:40:00 AM 42.1934 -82.6611 269° West  Level Estimated
Sun 08:41:00 AM 42.1915 -82.7663 269° West  Level Estimated
Sun 08:42:00 AM 42.1894 -82.8715 269° West  Level Estimated
Sun 08:43:00 AM 42.1873 -82.9767 268° West  Level Estimated
Sun 08:44:00 AM 42.1851 -83.0819 268° West  Level Estimated
Sun 08:45:00 AM 42.1828 -83.1871 268° West  Level Estimated
Sun 08:46:00 AM 42.1804 -83.2923 268° West  Level Estimated
Sun 08:47:00 AM 42.1778 -83.3974 268° West  Level Estimated
Sun 08:48:00 AM 42.1752 -83.5026 268° West  Level Estimated
Sun 08:49:00 AM 42.1725 -83.6077 268° West  Level Estimated
Sun 08:50:00 AM 42.1697 -83.7129 268° West  Level Estimated
Sun 08:51:00 AM 42.1669 -83.8180 268° West  Level Estimated
Sun 08:52:00 AM 42.1639 -83.9231 268° West  Level Estimated
Sun 08:53:00 AM 42.1608 -84.0282 268° West  Level Estimated
Sun 08:54:00 AM 42.1576 -84.1333 268° West  Level Estimated
Sun 08:55:00 AM 42.1543 -84.2384 268° West  Level Estimated
Sun 08:56:00 AM 42.1509 -84.3435 268° West  Level Estimated
Sun 08:57:00 AM 42.1475 -84.4485 267° West  Level Estimated
Sun 08:58:00 AM 42.1439 -84.5536 267° West  Level Estimated
Sun 08:59:00 AM 42.1402 -84.6586 267° West  Level Estimated
Sun 09:00:00 AM 42.1365 -84.7636 267° West  Level Estimated
Sun 09:01:00 AM 42.1326 -84.8687 267° West  Level Estimated
Sun 09:02:00 AM 42.1287 -84.9737 267° West  Level Estimated
Sun 09:03:00 AM 42.1246 -85.0787 267° West  Level Estimated
Sun 09:04:00 AM 42.1205 -85.1836 267° West  Level Estimated
Sun 09:05:00 AM 42.1162 -85.2886 267° West  Level Estimated
Sun 09:06:00 AM 42.1119 -85.3935 267° West  Level Estimated
Sun 09:07:00 AM 42.1072 -85.5046 267° West  Level Estimated
Sun 09:08:00 AM 42.1024 -85.6156 267° West  Level Estimated
Sun 09:09:00 AM 42.0975 -85.7267 267° West  Level Estimated
Sun 09:10:00 AM 42.0925 -85.8377 267° West  Level Estimated
Sun 09:11:00 AM 42.0874 -85.9487 266° West  Level Estimated
Sun 09:12:00 AM 42.0822 -86.0596 266° West  Level Estimated
Sun 09:13:00 AM 42.0769 -86.1706 266° West  Level Estimated
Sun 09:14:00 AM 42.0714 -86.2815 266° West  Level Estimated
Sun 09:15:00 AM 42.0659 -86.3925 266° West  Level Estimated
Sun 09:16:00 AM 42.0602 -86.5034 266° West  Level Estimated
Sun 09:17:00 AM 42.0545 -86.6142 266° West  Level Estimated
Sun 09:18:00 AM 42.0486 -86.7251 266° West  Level Estimated
Sun 09:19:00 AM 42.0426 -86.8359 266° West  Level Estimated
Sun 09:20:00 AM 42.0365 -86.9467 266° West  Level Estimated
Sun 09:21:00 AM 42.0304 -87.0575 266° West  Level Estimated
Sun 09:22:00 AM 42.0241 -87.1683 266° West  Level Estimated
Sun 09:23:00 AM 42.0177 -87.2791 266° West  Level Estimated
Sun 09:24:00 AM 42.0112 -87.3898 266° West  Level Estimated
Sun 09:25:00 AM 42.0046 -87.5005 265° West  Level Estimated
Sun 09:26:00 AM 41.9978 -87.6112 265° West  Level Estimated

Login

Don't have an account? Register now (free) for customized features, flight alerts, and more!